createdAt,value
2022-08-20T00:02:16.482Z,4.67
2022-08-20T00:04:45.462Z,4.40
2022-08-20T00:07:14.279Z,4.90
2022-08-20T00:09:42.979Z,4.23
2022-08-20T00:12:16.956Z,5.30
2022-08-20T00:14:45.278Z,4.60
2022-08-20T00:17:14.077Z,5.10
2022-08-20T00:19:42.326Z,3.87
2022-08-20T00:22:10.618Z,4.80
2022-08-20T00:24:38.878Z,6.33
2022-08-20T00:27:07.373Z,5.00
2022-08-20T00:29:37.105Z,4.30
2022-08-20T00:32:05.846Z,5.30
2022-08-20T00:34:34.247Z,5.10
2022-08-20T00:37:02.869Z,4.93
2022-08-20T00:39:31.019Z,4.80
2022-08-20T00:41:59.423Z,5.00
2022-08-20T00:44:28.187Z,6.30
2022-08-20T00:46:57.782Z,6.77
2022-08-20T00:49:28.363Z,5.43
2022-08-20T00:52:00.158Z,5.90
2022-08-20T00:54:34.850Z,5.10
2022-08-20T00:57:05.679Z,6.90
2022-08-20T00:59:36.215Z,5.37
2022-08-20T01:02:08.130Z,7.17
2022-08-20T01:04:37.936Z,7.53
2022-08-20T01:07:07.855Z,7.20
2022-08-20T01:09:58.116Z,7.47
2022-08-20T01:12:27.280Z,5.97
2022-08-20T01:14:56.841Z,5.83
2022-08-20T01:17:30.504Z,5.10
2022-08-20T01:20:02.968Z,6.80
2022-08-20T01:22:56.961Z,6.37
2022-08-20T01:25:34.227Z,6.90
2022-08-20T01:28:04.868Z,10.23
2022-08-20T01:30:33.837Z,6.03
2022-08-20T01:33:02.646Z,5.53
2022-08-20T01:35:31.222Z,5.30
2022-08-20T01:37:59.487Z,4.93
2022-08-20T01:40:45.727Z,4.87
2022-08-20T01:43:15.915Z,5.63
2022-08-20T01:45:45.637Z,6.10
2022-08-20T01:48:18.542Z,5.03
2022-08-20T01:50:52.714Z,5.87
2022-08-20T01:53:28.887Z,7.03
2022-08-20T01:55:57.125Z,7.93
2022-08-20T01:58:27.815Z,7.60
2022-08-20T02:00:56.124Z,7.13
2022-08-20T02:03:24.861Z,8.37
2022-08-20T02:05:53.457Z,7.20
2022-08-20T02:08:22.336Z,8.03
2022-08-20T02:10:50.824Z,10.03
2022-08-20T02:13:19.373Z,8.90
2022-08-20T02:15:49.052Z,7.40
2022-08-20T02:18:17.461Z,6.90
2022-08-20T02:20:47.106Z,7.07
2022-08-20T02:23:16.691Z,6.53
2022-08-20T02:25:48.386Z,7.97
2022-08-20T02:28:19.823Z,6.23
2022-08-20T02:30:51.942Z,6.40
2022-08-20T02:33:24.082Z,5.47
2022-08-20T02:35:56.902Z,6.30
2022-08-20T02:38:25.712Z,6.77
2022-08-20T02:40:54.206Z,7.33
2022-08-20T02:43:22.513Z,6.60
2022-08-20T02:45:52.134Z,7.27
2022-08-20T02:48:23.182Z,8.00
2022-08-20T02:50:55.156Z,8.80
2022-08-20T02:53:23.552Z,8.87
2022-08-20T02:55:52.205Z,8.70
2022-08-20T02:58:21.294Z,7.50
2022-08-20T03:00:51.670Z,8.30
2022-08-20T03:03:22.808Z,7.03
2022-08-20T03:05:54.462Z,6.50
2022-08-20T03:08:23.824Z,7.33
2022-08-20T03:10:53.303Z,8.23
2022-08-20T03:13:23.272Z,7.87
2022-08-20T03:15:58.830Z,7.77
2022-08-20T03:18:30.896Z,8.07
2022-08-20T03:20:59.101Z,9.70
2022-08-20T03:23:27.805Z,12.23
2022-08-20T03:25:56.375Z,7.67
2022-08-20T03:28:24.745Z,10.17
2022-08-20T03:30:56.462Z,9.77
2022-08-20T03:33:25.103Z,11.10
2022-08-20T03:35:53.370Z,7.10
2022-08-20T03:38:32.874Z,10.13
2022-08-20T03:41:03.123Z,7.60
2022-08-20T03:43:32.519Z,9.40
2022-08-20T03:46:02.505Z,6.67
2022-08-20T03:48:31.082Z,7.37
2022-08-20T03:51:00.963Z,7.73
2022-08-20T03:53:31.837Z,17.20
2022-08-20T03:56:04.431Z,24.50
2022-08-20T03:58:35.590Z,17.40
2022-08-20T04:01:07.814Z,14.80
2022-08-20T04:03:58.675Z,10.53
2022-08-20T04:06:27.882Z,10.10
2022-08-20T04:08:56.657Z,8.60
2022-08-20T04:11:25.259Z,7.53
2022-08-20T04:13:53.800Z,7.07
2022-08-20T04:16:24.059Z,6.33
2022-08-20T04:19:01.962Z,8.50
2022-08-20T04:21:33.076Z,5.97
2022-08-20T04:24:02.447Z,33.60
2022-08-20T04:26:31.141Z,23.80
2022-08-20T04:28:59.738Z,12.30
2022-08-20T04:31:33.070Z,8.00
2022-08-20T04:34:02.074Z,8.70
2022-08-20T04:36:30.546Z,5.90
2022-08-20T04:38:58.819Z,5.50
2022-08-20T04:41:27.172Z,4.83
2022-08-20T04:43:56.978Z,4.10
2022-08-20T04:46:29.024Z,5.87
2022-08-20T04:49:00.775Z,5.30
2022-08-20T04:51:29.745Z,3.60
2022-08-20T04:54:00.910Z,7.03
2022-08-20T04:56:31.971Z,6.73
2022-08-20T04:59:02.574Z,11.93
2022-08-20T05:01:32.423Z,12.80
2022-08-20T05:04:03.121Z,10.20
2022-08-20T05:06:32.812Z,7.00
2022-08-20T05:09:02.247Z,6.47
2022-08-20T05:11:34.584Z,6.63
2022-08-20T05:14:09.820Z,5.83
2022-08-20T05:16:39.218Z,5.67
2022-08-20T05:19:10.688Z,6.00
2022-08-20T05:21:39.405Z,5.60
2022-08-20T05:24:08.279Z,5.27
2022-08-20T05:26:37.305Z,5.20
2022-08-20T05:29:06.999Z,8.70
2022-08-20T05:31:36.268Z,14.50
2022-08-20T05:34:09.808Z,14.40
2022-08-20T05:36:41.364Z,13.07
2022-08-20T05:39:11.783Z,11.00
2022-08-20T05:41:41.227Z,11.83
2022-08-20T05:44:14.348Z,9.00
2022-08-20T05:46:45.261Z,10.00
2022-08-20T05:49:16.747Z,10.60
2022-08-20T05:51:46.764Z,12.03
2022-08-20T05:54:15.762Z,14.00
2022-08-20T05:56:44.439Z,14.43
2022-08-20T05:59:14.110Z,17.87
2022-08-20T06:01:43.937Z,18.50
2022-08-20T06:04:28.701Z,19.97
2022-08-20T06:07:02.954Z,23.47
2022-08-20T06:09:32.936Z,26.57
2022-08-20T06:12:02.997Z,24.10
2022-08-20T06:14:32.681Z,23.40
2022-08-20T06:17:13.418Z,23.40
2022-08-20T06:19:45.039Z,25.10
2022-08-20T06:22:19.068Z,23.87
2022-08-20T06:24:53.342Z,26.20
2022-08-20T06:27:21.907Z,32.70
2022-08-20T06:29:50.549Z,23.47
2022-08-20T06:32:19.941Z,23.40
2022-08-20T06:34:57.281Z,21.30
2022-08-20T06:37:31.322Z,23.97
2022-08-20T06:40:04.145Z,19.20
2022-08-20T06:42:32.640Z,18.57
2022-08-20T06:45:04.870Z,21.20
2022-08-20T06:47:33.830Z,23.03
2022-08-20T06:50:02.243Z,19.40
2022-08-20T06:52:52.253Z,18.73
2022-08-20T06:55:20.491Z,18.27
2022-08-20T06:57:48.972Z,17.33
2022-08-20T07:00:20.893Z,16.53
2022-08-20T07:02:49.432Z,15.83
2022-08-20T07:05:18.085Z,16.80
2022-08-20T07:07:51.142Z,20.63
2022-08-20T07:10:21.921Z,19.87
2022-08-20T07:12:51.134Z,16.07
2022-08-20T07:15:21.413Z,19.00
2022-08-20T07:17:58.754Z,15.43
2022-08-20T07:20:31.791Z,17.30
2022-08-20T07:23:02.261Z,27.10
2022-08-20T07:25:33.661Z,23.17
2022-08-20T07:28:04.273Z,18.20
2022-08-20T07:30:57.095Z,17.77
2022-08-20T07:33:28.525Z,22.30
2022-08-20T07:35:58.295Z,19.23
2022-08-20T07:38:30.863Z,19.60
2022-08-20T07:41:01.925Z,17.20
2022-08-20T07:43:33.359Z,21.90
2022-08-20T07:46:09.876Z,18.53
2022-08-20T07:48:40.610Z,17.70
2022-08-20T07:51:12.387Z,21.37
2022-08-20T07:53:43.074Z,20.03
2022-08-20T07:56:14.353Z,23.47
2022-08-20T07:58:50.505Z,22.83
2022-08-20T08:01:21.055Z,21.63
2022-08-20T08:03:50.827Z,20.17
2022-08-20T08:06:28.610Z,19.97
2022-08-20T08:09:05.862Z,17.23
2022-08-20T08:11:37.969Z,18.07
2022-08-20T08:14:09.652Z,18.00
2022-08-20T08:16:40.152Z,19.80
2022-08-20T08:19:11.992Z,23.07
2022-08-20T08:21:41.242Z,18.33
2022-08-20T08:24:14.351Z,21.13
2022-08-20T08:26:46.059Z,16.87
2022-08-20T08:29:14.917Z,15.93
2022-08-20T08:31:43.378Z,18.53
2022-08-20T08:34:11.794Z,22.30
2022-08-20T08:36:40.391Z,18.40
2022-08-20T08:39:10.316Z,24.40
2022-08-20T08:41:48.521Z,22.70
2022-08-20T08:44:23.279Z,26.37
2022-08-20T08:46:57.255Z,22.50
2022-08-20T08:49:37.717Z,18.70
2022-08-20T08:52:12.623Z,17.53
2022-08-20T08:54:47.044Z,22.70
2022-08-20T08:57:16.451Z,16.63
2022-08-20T08:59:58.219Z,15.07
2022-08-20T09:02:34.213Z,13.83
2022-08-20T09:05:07.237Z,18.40
2022-08-20T09:07:36.679Z,19.10
2022-08-20T09:10:08.630Z,23.03
2022-08-20T09:12:36.959Z,19.53
2022-08-20T09:15:06.489Z,22.13
2022-08-20T09:17:34.900Z,22.83
2022-08-20T09:20:03.866Z,24.10
2022-08-20T09:22:33.485Z,19.80
2022-08-20T09:25:03.608Z,19.57
2022-08-20T09:27:33.494Z,24.80
2022-08-20T09:30:02.100Z,25.70
2022-08-20T09:32:30.588Z,25.83
2022-08-20T09:34:59.904Z,26.53
2022-08-20T09:37:36.605Z,21.23
2022-08-20T09:40:08.046Z,16.37
2022-08-20T09:42:41.653Z,22.13
2022-08-20T09:45:11.487Z,27.30
2022-08-20T09:47:54.822Z,27.53
2022-08-20T09:50:32.047Z,22.50
2022-08-20T09:53:02.269Z,25.60
2022-08-20T09:55:35.154Z,23.40
2022-08-20T09:58:09.416Z,21.40
2022-08-20T10:00:38.143Z,23.30
2022-08-20T10:03:06.514Z,19.60
2022-08-20T10:05:34.892Z,19.00
2022-08-20T10:08:07.332Z,19.87
2022-08-20T10:10:35.824Z,20.07
2022-08-20T10:13:05.703Z,20.00
2022-08-20T10:15:34.634Z,25.77
2022-08-20T10:18:05.879Z,27.00
2022-08-20T10:20:35.100Z,24.83
2022-08-20T10:23:04.067Z,19.83
2022-08-20T10:25:32.811Z,17.00
2022-08-20T10:28:01.355Z,18.63
2022-08-20T10:30:31.143Z,15.63
2022-08-20T10:32:59.771Z,21.53
2022-08-20T10:35:29.168Z,17.60
2022-08-20T10:37:57.827Z,18.80
2022-08-20T10:40:26.611Z,13.97
2022-08-20T10:42:55.172Z,16.63
2022-08-20T10:45:25.294Z,16.73
2022-08-20T10:47:55.578Z,22.07
2022-08-20T10:50:24.590Z,22.43
2022-08-20T10:52:59.155Z,20.50
2022-08-20T10:55:27.966Z,20.20
2022-08-20T10:57:56.845Z,15.80
2022-08-20T11:00:25.665Z,14.90
2022-08-20T11:02:55.705Z,16.73
2022-08-20T11:05:24.375Z,16.47
2022-08-20T11:07:56.691Z,17.20
2022-08-20T11:10:27.037Z,15.83
2022-08-20T11:12:56.106Z,17.50
2022-08-20T11:15:25.215Z,14.47
2022-08-20T11:17:55.588Z,15.90
2022-08-20T11:20:26.418Z,20.43
2022-08-20T11:22:55.788Z,20.43
2022-08-20T11:25:24.567Z,14.90
2022-08-20T11:27:54.372Z,16.97
2022-08-20T11:30:26.179Z,19.50
2022-08-20T11:32:56.333Z,18.67
2022-08-20T11:35:42.227Z,16.97
2022-08-20T11:38:14.377Z,14.77
2022-08-20T11:40:43.379Z,16.03
2022-08-20T11:43:15.046Z,12.07
2022-08-20T11:45:45.471Z,11.33
2022-08-20T11:48:15.793Z,13.83
2022-08-20T11:50:44.427Z,16.50
2022-08-20T11:53:12.998Z,12.50
2022-08-20T11:55:43.539Z,19.27
2022-08-20T11:58:12.669Z,16.63
2022-08-20T12:00:41.373Z,17.80
2022-08-20T12:03:11.752Z,14.53
2022-08-20T12:05:44.390Z,16.63
2022-08-20T12:08:27.186Z,11.80
2022-08-20T12:10:57.438Z,15.10
2022-08-20T12:13:47.155Z,10.93
2022-08-20T12:16:14.798Z,18.10
2022-08-20T12:18:43.137Z,14.90
2022-08-20T12:21:13.479Z,16.50
2022-08-20T12:23:42.044Z,17.90
2022-08-20T12:26:10.891Z,14.60
2022-08-20T12:28:39.278Z,13.83
2022-08-20T12:31:07.831Z,9.83
2022-08-20T12:33:36.205Z,19.00
2022-08-20T12:36:06.120Z,10.00
2022-08-20T12:38:36.226Z,14.40
2022-08-20T12:41:05.247Z,9.63
2022-08-20T12:43:34.185Z,12.50
2022-08-20T12:46:02.545Z,15.10
2022-08-20T12:48:31.192Z,15.87
2022-08-20T12:50:59.826Z,8.47
2022-08-20T12:53:28.331Z,12.40
2022-08-20T12:55:58.122Z,10.90
2022-08-20T12:58:26.605Z,62.80
2022-08-20T13:00:56.665Z,41.60
2022-08-20T13:03:26.609Z,24.80
2022-08-20T13:05:56.430Z,15.53
2022-08-20T13:08:26.302Z,11.57
2022-08-20T13:10:55.956Z,9.30
2022-08-20T13:13:26.494Z,8.73
2022-08-20T13:15:54.931Z,9.57
2022-08-20T13:18:23.523Z,11.73
2022-08-20T13:20:52.198Z,10.70
2022-08-20T13:23:20.965Z,13.10
2022-08-20T13:25:49.566Z,7.53
2022-08-20T13:28:18.108Z,8.63
2022-08-20T13:30:47.931Z,12.93
2022-08-20T13:33:16.994Z,11.33
2022-08-20T13:35:45.544Z,4.67
2022-08-20T13:38:14.593Z,8.53
2022-08-20T13:40:43.300Z,7.93
2022-08-20T13:43:16.024Z,8.40
2022-08-20T13:45:44.489Z,7.90
2022-08-20T13:48:15.215Z,8.87
2022-08-20T13:50:47.383Z,8.70
2022-08-20T13:53:20.002Z,13.67
2022-08-20T13:55:50.099Z,11.70
2022-08-20T13:58:18.970Z,12.10
2022-08-20T14:00:50.220Z,6.37
2022-08-20T14:03:25.525Z,8.80
2022-08-20T14:05:54.846Z,5.13
2022-08-20T14:08:24.881Z,8.37
2022-08-20T14:10:54.093Z,5.60
2022-08-20T14:13:25.901Z,9.20
2022-08-20T14:15:57.261Z,10.03
2022-08-20T14:18:30.916Z,7.03
2022-08-20T14:21:02.817Z,8.07
2022-08-20T14:23:36.863Z,7.17
2022-08-20T14:26:11.833Z,8.63
2022-08-20T14:28:42.714Z,8.77
2022-08-20T14:31:12.746Z,7.57
2022-08-20T14:33:44.727Z,28.33
2022-08-20T14:36:17.570Z,44.50
2022-08-20T14:38:48.618Z,26.83
2022-08-20T14:41:17.109Z,16.03
2022-08-20T14:43:45.809Z,12.10
2022-08-20T14:46:14.543Z,9.03
2022-08-20T14:48:44.476Z,11.00
2022-08-20T14:51:20.686Z,7.47
2022-08-20T14:53:49.236Z,10.07
2022-08-20T14:56:18.194Z,6.83
2022-08-20T14:58:46.856Z,9.80
2022-08-20T15:01:15.463Z,6.93
2022-08-20T15:03:45.399Z,9.57
2022-08-20T15:06:21.668Z,10.60
2022-08-20T15:08:50.929Z,9.67
2022-08-20T15:11:19.474Z,8.83
2022-08-20T15:13:47.963Z,5.77
2022-08-20T15:16:16.700Z,7.97
2022-08-20T15:18:46.562Z,7.00
2022-08-20T15:21:21.828Z,6.73
2022-08-20T15:23:50.876Z,9.47
2022-08-20T15:26:19.369Z,5.17
2022-08-20T15:28:47.725Z,7.33
2022-08-20T15:31:16.474Z,8.23
2022-08-20T15:33:46.393Z,10.20
2022-08-20T15:36:14.911Z,7.10
2022-08-20T15:38:43.470Z,7.57
2022-08-20T15:41:13.294Z,6.57
2022-08-20T15:43:42.869Z,7.03
2022-08-20T15:46:14.272Z,13.97
2022-08-20T15:48:49.993Z,6.50
2022-08-20T15:51:26.566Z,8.93
2022-08-20T15:54:03.104Z,10.23
2022-08-20T15:56:53.981Z,8.33
2022-08-20T15:59:50.834Z,9.53
2022-08-20T16:02:45.966Z,7.20
2022-08-20T16:05:30.542Z,7.37
2022-08-20T16:08:15.721Z,6.37
2022-08-20T16:11:01.960Z,6.47
2022-08-20T16:13:40.920Z,7.03
2022-08-20T16:16:17.531Z,8.30
2022-08-20T16:18:54.886Z,10.63
2022-08-20T16:21:32.214Z,8.80
2022-08-20T16:24:06.105Z,6.00
2022-08-20T16:26:58.266Z,12.50
2022-08-20T16:29:46.963Z,8.80
2022-08-20T16:32:27.460Z,10.67
2022-08-20T16:35:00.423Z,11.20
2022-08-20T16:37:38.450Z,10.43
2022-08-20T16:40:20.291Z,13.33
2022-08-20T16:42:51.812Z,11.57
2022-08-20T16:45:25.510Z,20.43
2022-08-20T16:47:55.657Z,18.30
2022-08-20T16:50:28.789Z,18.23
2022-08-20T16:52:58.877Z,10.70
2022-08-20T16:55:27.858Z,8.50
2022-08-20T16:57:56.577Z,8.97
2022-08-20T17:00:29.601Z,7.27
2022-08-20T17:03:00.184Z,8.37
2022-08-20T17:05:31.683Z,10.30
2022-08-20T17:08:05.404Z,8.60
2022-08-20T17:10:37.506Z,6.40
2022-08-20T17:13:23.555Z,4.23
2022-08-20T17:15:59.063Z,4.93
2022-08-20T17:18:30.250Z,6.60
2022-08-20T17:21:03.177Z,4.40
2022-08-20T17:23:54.591Z,4.70
2022-08-20T17:26:29.350Z,5.23
2022-08-20T17:29:02.389Z,3.40
2022-08-20T17:31:38.571Z,4.03
2022-08-20T17:34:15.142Z,7.67
2022-08-20T17:36:52.798Z,4.00
2022-08-20T17:39:24.939Z,5.60
2022-08-20T17:41:58.623Z,4.83
2022-08-20T17:44:33.974Z,5.13
2022-08-20T17:47:07.787Z,4.03
2022-08-20T17:49:53.235Z,3.80
2022-08-20T17:52:37.699Z,8.13
2022-08-20T17:55:12.618Z,6.93
2022-08-20T17:57:44.922Z,18.67
2022-08-20T18:00:18.253Z,16.20
2022-08-20T18:02:46.514Z,12.13
2022-08-20T18:05:20.439Z,11.90
2022-08-20T18:08:11.564Z,9.20
2022-08-20T18:10:48.203Z,6.87
2022-08-20T18:13:20.848Z,7.27
2022-08-20T18:15:54.648Z,6.53
2022-08-20T18:18:37.604Z,4.77
2022-08-20T18:21:56.096Z,5.70
2022-08-20T18:24:30.321Z,6.00
2022-08-20T18:27:09.077Z,6.53
2022-08-20T18:29:42.681Z,4.50
2022-08-20T18:32:26.451Z,6.47
2022-08-20T18:34:55.056Z,7.93
2022-08-20T18:37:29.015Z,6.90
2022-08-20T18:40:10.672Z,3.83
2022-08-20T18:42:40.570Z,4.30
2022-08-20T18:45:10.460Z,4.47
2022-08-20T18:47:45.285Z,7.13
2022-08-20T18:50:25.264Z,5.57
2022-08-20T18:53:10.048Z,5.17
2022-08-20T18:55:43.115Z,4.57
2022-08-20T18:58:29.121Z,2.70
2022-08-20T19:00:57.598Z,8.03
2022-08-20T19:03:32.162Z,3.40
2022-08-20T19:06:32.202Z,21.50
2022-08-20T19:09:06.916Z,15.70
2022-08-20T19:12:04.831Z,9.00
2022-08-20T19:15:01.377Z,5.67
2022-08-20T19:17:50.019Z,7.43
2022-08-20T19:20:22.655Z,7.80
2022-08-20T19:22:53.880Z,5.97
2022-08-20T19:25:25.901Z,6.23
2022-08-20T19:27:55.118Z,5.60
2022-08-20T19:30:38.831Z,5.53
2022-08-20T19:33:08.507Z,4.43
2022-08-20T19:35:37.899Z,4.73
2022-08-20T19:38:09.065Z,5.50
2022-08-20T19:40:40.132Z,6.67
2022-08-20T19:43:15.849Z,6.23
2022-08-20T19:45:49.977Z,4.53
2022-08-20T19:48:32.311Z,3.97
2022-08-20T19:51:14.144Z,4.70
2022-08-20T19:53:47.588Z,3.60
2022-08-20T19:56:19.705Z,3.77
2022-08-20T19:58:59.603Z,5.40
2022-08-20T20:01:29.667Z,5.03
2022-08-20T20:04:00.833Z,5.80
2022-08-20T20:06:30.240Z,7.87
2022-08-20T20:09:00.982Z,5.63
2022-08-20T20:11:35.444Z,5.23
2022-08-20T20:14:06.516Z,6.93
2022-08-20T20:16:37.631Z,6.93
2022-08-20T20:19:25.760Z,6.40
2022-08-20T20:22:18.694Z,10.70
2022-08-20T20:24:57.808Z,3.30
2022-08-20T20:27:28.774Z,3.20
2022-08-20T20:30:01.246Z,2.50
2022-08-20T20:32:33.771Z,3.50
2022-08-20T20:35:06.096Z,3.40
2022-08-20T20:37:49.358Z,6.17
2022-08-20T20:40:25.451Z,2.50
2022-08-20T20:43:05.003Z,4.93
2022-08-20T20:45:36.637Z,3.83
2022-08-20T20:48:18.684Z,4.00
2022-08-20T20:50:49.370Z,3.67
2022-08-20T20:53:55.409Z,4.50
2022-08-20T20:56:29.323Z,6.30
2022-08-20T20:59:00.318Z,4.67
2022-08-20T21:01:48.859Z,5.07
2022-08-20T21:04:20.192Z,6.50
2022-08-20T21:06:49.181Z,5.47
2022-08-20T21:09:18.748Z,8.10
2022-08-20T21:11:47.328Z,9.93
2022-08-20T21:14:15.930Z,3.30
2022-08-20T21:16:44.746Z,5.23
2022-08-20T21:19:13.873Z,4.60
2022-08-20T21:21:44.093Z,9.10
2022-08-20T21:24:13.136Z,4.03
2022-08-20T21:26:43.102Z,4.83
2022-08-20T21:29:14.676Z,6.10
2022-08-20T21:31:45.231Z,10.63
2022-08-20T21:34:16.351Z,5.90
2022-08-20T21:36:46.813Z,4.87
2022-08-20T21:39:16.164Z,4.73
2022-08-20T21:41:45.716Z,6.50
2022-08-20T21:44:21.325Z,7.33
2022-08-20T21:46:49.832Z,7.23
2022-08-20T21:49:19.564Z,5.30
2022-08-20T21:51:50.068Z,5.13
2022-08-20T21:54:19.607Z,4.87
2022-08-20T21:56:51.395Z,6.30
2022-08-20T21:59:23.638Z,4.20
2022-08-20T22:01:52.604Z,5.10
2022-08-20T22:04:21.977Z,7.13
2022-08-20T22:06:52.290Z,6.37
2022-08-20T22:09:21.589Z,6.63
2022-08-20T22:11:54.595Z,5.80
2022-08-20T22:14:25.031Z,7.13
2022-08-20T22:16:53.511Z,4.07
2022-08-20T22:19:22.221Z,4.50
2022-08-20T22:21:53.936Z,6.00
2022-08-20T22:24:23.027Z,5.37
2022-08-20T22:26:52.146Z,3.30
2022-08-20T22:29:21.711Z,8.20
2022-08-20T22:31:50.316Z,5.87
2022-08-20T22:34:21.252Z,3.90
2022-08-20T22:36:53.314Z,4.70
2022-08-20T22:39:22.157Z,7.47
2022-08-20T22:41:50.560Z,7.53
2022-08-20T22:44:20.100Z,6.40
2022-08-20T22:46:52.709Z,3.83
2022-08-20T22:49:27.836Z,5.17
2022-08-20T22:51:58.596Z,6.27
2022-08-20T22:54:27.587Z,8.57
2022-08-20T22:56:56.724Z,5.60
2022-08-20T22:59:25.442Z,5.43
2022-08-20T23:01:54.553Z,6.90
2022-08-20T23:04:27.031Z,5.00
2022-08-20T23:06:57.979Z,3.50
2022-08-20T23:09:31.201Z,10.50
2022-08-20T23:12:00.089Z,5.50
2022-08-20T23:14:29.067Z,5.60
2022-08-20T23:17:01.397Z,4.63
2022-08-20T23:19:29.910Z,5.13
2022-08-20T23:21:59.759Z,5.60
2022-08-20T23:24:28.194Z,4.37
2022-08-20T23:26:56.643Z,5.67
2022-08-20T23:29:26.209Z,6.33
2022-08-20T23:31:55.382Z,5.13
2022-08-20T23:34:23.808Z,6.20
2022-08-20T23:36:52.778Z,3.67
2022-08-20T23:39:23.607Z,4.90
2022-08-20T23:41:52.078Z,9.33
2022-08-20T23:44:25.095Z,5.20
2022-08-20T23:46:55.705Z,5.60
2022-08-20T23:49:23.937Z,4.20
2022-08-20T23:51:52.126Z,4.13
2022-08-20T23:54:20.404Z,5.57
2022-08-20T23:56:50.068Z,4.40
2022-08-20T23:59:18.371Z,4.20
